X  Close Metar Aviation Weather Data     KRYV Watertown Municipal Airport
Temperature
68°F Temperature
55°F Dewpoint
64% Humidity



Wind
7 MPH
11 KM/H
3 M/S
6 KTS



350°
North
Current Conditions

Clear Clear
Pressure 1020.02 (hPa) - 30.12 (inHg)
Visibility 9.9 (mile) - 16 (km)
Airport
Airport-code KRYV

Location: Watertown Municipal Airport
Distance: 8 (mi)

Metar:
KRYV 180035Z AUTO 35006KT 10SM CLR 20/13 A3012 RMK AO2 T01970131

Time: 17-09-2021 19:35 CDT